Time;durP1;ratioP1;P1;durP2;ratioP2;P2;SDS_P1;SDS_P2;PMS_P1;PMS_P2;Temp;Humidity;BMP_temperature;BMP_pressure;BME280_temperature;BME280_humidity;BME280_pressure;Samples;Min_cycle;Max_cycle;Signal;HPM_P1;HPM_P2
2023/08/28 00:00:50;;;;;;;5.95;2.38;;;13.80;99.90;;;;;;5077811;28;20486;-78
2023/08/28 00:03:16;;;;;;;10.38;2.38;;;13.80;99.90;;;;;;5081234;28;20036;-77
2023/08/28 00:05:41;;;;;;;7.07;2.05;;;13.80;99.90;;;;;;5075576;28;20456;-78
2023/08/28 00:08:07;;;;;;;4.35;2.20;;;13.60;99.90;;;;;;5078408;28;20044;-78
2023/08/28 00:10:33;;;;;;;4.57;1.88;;;13.70;99.90;;;;;;5078708;28;20063;-78
2023/08/28 00:12:59;;;;;;;7.68;2.38;;;13.70;99.90;;;;;;5077682;28;20044;-77
2023/08/28 00:15:26;;;;;;;8.10;2.20;;;13.70;99.90;;;;;;5076095;28;20037;-78
2023/08/28 00:17:53;;;;;;;8.00;2.13;;;13.70;99.90;;;;;;5077093;28;20498;-77
2023/08/28 00:20:19;;;;;;;3.85;1.70;;;13.70;99.90;;;;;;5091789;28;21640;-79
2023/08/28 00:22:45;;;;;;;6.38;2.13;;;13.70;99.90;;;;;;5079073;28;20055;-79
2023/08/28 00:25:11;;;;;;;6.35;2.40;;;13.60;99.90;;;;;;5082167;28;20044;-78
2023/08/28 00:27:36;;;;;;;7.45;2.30;;;13.60;99.90;;;;;;5083948;28;20493;-78
2023/08/28 00:30:06;;;;;;;4.55;1.98;;;13.60;99.90;;;;;;5078960;28;20032;-78
2023/08/28 00:32:31;;;;;;;7.07;1.90;;;13.60;99.90;;;;;;5078831;28;20068;-79
2023/08/28 00:34:57;;;;;;;7.97;2.28;;;13.60;99.90;;;;;;5091101;28;20079;-78
2023/08/28 00:37:23;;;;;;;3.65;2.20;;;13.60;99.90;;;;;;5077236;28;20037;-77
2023/08/28 00:39:48;;;;;;;8.77;2.67;;;13.60;99.90;;;;;;5085788;28;20547;-78
2023/08/28 00:42:14;;;;;;;4.65;2.33;;;13.60;99.90;;;;;;5081931;28;20436;-78
2023/08/28 00:44:40;;;;;;;5.15;2.42;;;13.60;99.90;;;;;;5078365;28;20120;-78
2023/08/28 00:47:07;;;;;;;6.32;2.30;;;13.60;99.90;;;;;;5082461;28;20044;-78
2023/08/28 00:49:34;;;;;;;4.70;2.30;;;13.60;99.90;;;;;;5079331;28;20131;-77
2023/08/28 00:52:00;;;;;;;5.90;2.20;;;13.60;99.90;;;;;;5081950;28;20398;-78
2023/08/28 00:54:27;;;;;;;4.57;2.25;;;13.50;99.90;;;;;;5082678;28;20068;-78
2023/08/28 00:56:57;;;;;;;6.03;2.15;;;13.50;99.90;;;;;;5080173;28;20040;-77
2023/08/28 00:59:23;;;;;;;6.50;2.60;;;13.50;99.90;;;;;;5078249;28;20063;-77
2023/08/28 01:01:48;;;;;;;4.05;2.08;;;13.50;99.90;;;;;;5078361;28;20083;-78
2023/08/28 01:04:14;;;;;;;5.63;2.17;;;13.50;99.90;;;;;;5084613;28;20040;-78
2023/08/28 01:07:01;;;;;;;5.82;2.17;;;13.50;99.90;;;;;;5075990;28;20047;-77
2023/08/28 01:10:15;;;;;;;4.43;2.30;;;13.50;99.90;;;;;;5078752;28;20044;-78
2023/08/28 01:12:52;;;;;;;3.88;2.00;;;13.50;99.90;;;;;;5078096;28;20131;-78
2023/08/28 01:15:20;;;;;;;5.50;2.33;;;13.40;99.90;;;;;;5081406;28;20052;-78
2023/08/28 01:17:50;;;;;;;6.47;2.30;;;13.40;99.90;;;;;;5089015;28;20410;-78
2023/08/28 01:20:17;;;;;;;6.57;2.10;;;13.40;99.90;;;;;;5090808;28;20044;-78
2023/08/28 01:22:52;;;;;;;8.05;2.30;;;13.40;99.90;;;;;;5089964;28;20138;-78
2023/08/28 01:25:18;;;;;;;4.45;2.10;;;13.40;99.90;;;;;;5090662;28;20044;-82
2023/08/28 01:27:44;;;;;;;6.15;1.95;;;13.40;99.90;;;;;;5085776;28;20055;-78
2023/08/28 01:30:15;;;;;;;6.38;2.13;;;13.30;99.90;;;;;;5113358;27;20028;-78
2023/08/28 01:32:44;;;;;;;4.05;1.92;;;13.40;99.90;;;;;;5092889;28;20093;-78
2023/08/28 01:35:17;;;;;;;6.32;1.80;;;13.40;99.90;;;;;;5089045;28;20449;-78
2023/08/28 01:38:02;;;;;;;3.72;2.03;;;13.40;99.90;;;;;;5092527;28;20036;-78
2023/08/28 01:40:34;;;;;;;4.32;1.90;;;13.50;99.90;;;;;;5086414;28;20041;-78
2023/08/28 01:43:01;;;;;;;3.72;2.10;;;13.40;99.90;;;;;;5090584;28;20048;-79
2023/08/28 01:45:28;;;;;;;6.93;2.43;;;13.40;99.90;;;;;;5079737;28;20127;-78
2023/08/28 01:47:54;;;;;;;4.43;2.20;;;13.40;99.90;;;;;;5082168;28;20037;-78
2023/08/28 01:50:19;;;;;;;4.93;1.90;;;13.40;99.90;;;;;;5078129;28;20041;-78
2023/08/28 01:52:45;;;;;;;7.07;2.30;;;13.40;99.90;;;;;;5110024;28;20043;-78
2023/08/28 01:55:11;;;;;;;6.68;2.30;;;13.40;99.90;;;;;;5088961;28;20036;-79
2023/08/28 01:57:37;;;;;;;4.85;2.55;;;13.40;99.90;;;;;;5081971;28;20549;-77
2023/08/28 02:00:03;;;;;;;5.30;2.20;;;13.40;99.90;;;;;;5096535;28;20033;-78
2023/08/28 02:02:28;;;;;;;6.15;2.15;;;13.40;99.90;;;;;;5084350;28;20115;-78
2023/08/28 02:04:54;;;;;;;5.85;2.33;;;13.40;99.90;;;;;;5082447;28;20032;-78
2023/08/28 02:07:20;;;;;;;4.13;2.03;;;13.40;99.90;;;;;;5103158;28;20032;-77
2023/08/28 02:09:47;;;;;;;8.00;2.30;;;13.30;99.90;;;;;;5081754;28;20473;-78
2023/08/28 02:12:13;;;;;;;2.95;1.90;;;13.40;99.90;;;;;;5084353;28;20044;-79
2023/08/28 02:14:38;;;;;;;9.45;2.45;;;13.30;99.90;;;;;;5087467;28;20036;-79
2023/08/28 02:17:04;;;;;;;2.67;2.00;;;13.30;99.90;;;;;;5083802;28;20052;-79
2023/08/28 02:19:30;;;;;;;5.20;2.38;;;13.30;99.90;;;;;;5078788;28;20123;-78
2023/08/28 02:21:55;;;;;;;6.60;2.70;;;13.20;99.90;;;;;;5092314;28;20044;-78
2023/08/28 02:24:21;;;;;;;4.15;2.10;;;13.20;99.90;;;;;;5061940;28;20040;-78
2023/08/28 02:26:46;;;;;;;4.95;2.20;;;13.30;99.90;;;;;;5078216;28;20028;-78
2023/08/28 02:29:12;;;;;;;6.43;2.22;;;13.00;99.90;;;;;;5084812;28;20044;-78
2023/08/28 02:31:38;;;;;;;3.05;2.38;;;13.20;99.90;;;;;;5089096;28;20043;-77
2023/08/28 02:34:03;;;;;;;5.82;2.17;;;13.20;99.90;;;;;;5091635;28;20132;-77
2023/08/28 02:36:29;;;;;;;7.05;2.30;;;13.20;99.90;;;;;;5063332;28;20090;-80
2023/08/28 02:38:54;;;;;;;5.15;2.10;;;13.20;99.90;;;;;;5084895;28;20097;-77
2023/08/28 02:41:21;;;;;;;8.50;2.38;;;13.10;99.90;;;;;;5086496;28;20054;-77
2023/08/28 02:43:47;;;;;;;4.57;1.90;;;13.10;99.90;;;;;;5100877;28;20478;-77
2023/08/28 02:46:13;;;;;;;4.45;2.00;;;13.20;99.90;;;;;;5097902;28;20040;-77
2023/08/28 02:48:38;;;;;;;5.10;2.00;;;13.20;99.90;;;;;;5099285;28;20092;-78
2023/08/28 02:51:04;;;;;;;4.45;2.00;;;13.20;99.90;;;;;;5095857;28;20125;-79
2023/08/28 02:53:29;;;;;;;4.05;1.85;;;13.50;99.90;;;;;;5084992;28;20497;-78
2023/08/28 02:56:17;;;;;;;4.28;1.92;;;13.20;99.90;;;;;;5085528;28;20039;-78
2023/08/28 02:58:42;;;;;;;4.35;2.40;;;13.20;99.90;;;;;;5080802;28;20127;-78
2023/08/28 03:01:09;;;;;;;3.45;2.38;;;13.20;99.90;;;;;;5080532;28;20427;-78
2023/08/28 03:03:34;;;;;;;5.30;2.47;;;13.10;99.90;;;;;;5077730;28;20174;-78
2023/08/28 03:06:01;;;;;;;5.60;2.20;;;13.20;99.90;;;;;;5088894;28;20073;-78
2023/08/28 03:08:30;;;;;;;5.07;2.38;;;13.20;99.90;;;;;;5080899;28;20120;-78
2023/08/28 03:10:56;;;;;;;4.95;2.38;;;13.20;99.90;;;;;;5081201;28;20068;-77
2023/08/28 03:13:22;;;;;;;5.88;2.60;;;13.10;99.90;;;;;;5086490;28;20087;-78
2023/08/28 03:15:47;;;;;;;5.30;2.40;;;13.10;99.90;;;;;;5089476;28;21861;-78
2023/08/28 03:18:13;;;;;;;7.95;2.63;;;13.10;99.90;;;;;;5078803;28;20051;-80
2023/08/28 03:20:38;;;;;;;6.95;2.40;;;13.10;99.90;;;;;;5077976;28;20056;-78
2023/08/28 03:23:04;;;;;;;5.22;2.50;;;13.10;99.90;;;;;;5079485;28;20124;-78
2023/08/28 03:25:30;;;;;;;4.80;2.35;;;13.10;99.90;;;;;;5082403;28;20813;-78
2023/08/28 03:27:55;;;;;;;5.35;2.22;;;13.10;99.90;;;;;;5083209;28;20049;-79
2023/08/28 03:30:21;;;;;;;4.18;2.40;;;13.10;99.90;;;;;;5080389;28;20482;-78
2023/08/28 03:32:47;;;;;;;7.28;2.50;;;13.10;99.90;;;;;;5115265;27;20048;-78
2023/08/28 03:35:13;;;;;;;3.13;2.00;;;13.10;99.90;;;;;;5082558;28;20036;-78
2023/08/28 03:37:39;;;;;;;4.03;2.40;;;13.10;99.90;;;;;;5079019;28;20142;-77
2023/08/28 03:40:05;;;;;;;6.32;2.33;;;13.10;99.90;;;;;;5081439;28;20120;-78
2023/08/28 03:42:30;;;;;;;5.95;2.53;;;13.10;99.90;;;;;;5077419;28;20490;-77
2023/08/28 03:44:56;;;;;;;5.38;2.72;;;13.10;99.90;;;;;;5076417;28;20098;-77
2023/08/28 03:47:22;;;;;;;5.35;2.33;;;13.10;99.90;;;;;;5078035;28;20040;-78
2023/08/28 03:49:47;;;;;;;4.85;2.58;;;13.10;99.90;;;;;;5078833;28;20482;-78
2023/08/28 03:52:13;;;;;;;3.38;2.30;;;13.00;99.90;;;;;;5077589;28;20041;-77
2023/08/28 03:54:38;;;;;;;3.33;2.45;;;13.10;99.90;;;;;;5080687;28;20047;-78
2023/08/28 03:57:06;;;;;;;5.45;2.50;;;13.00;99.90;;;;;;5083201;28;20040;-78
2023/08/28 03:59:31;;;;;;;4.47;2.50;;;13.00;99.90;;;;;;5080782;28;20079;-77
2023/08/28 04:01:57;;;;;;;7.55;2.70;;;13.00;99.90;;;;;;5111152;27;20055;-78
2023/08/28 04:04:23;;;;;;;5.68;2.80;;;13.00;99.90;;;;;;5084718;28;20105;-77
2023/08/28 04:06:48;;;;;;;4.50;2.80;;;13.00;99.90;;;;;;5088274;28;20047;-78
2023/08/28 04:09:14;;;;;;;5.20;2.63;;;12.90;99.90;;;;;;5087119;28;20111;-78
2023/08/28 04:11:41;;;;;;;6.97;2.70;;;12.90;99.90;;;;;;5076466;28;20036;-78
2023/08/28 04:14:07;;;;;;;3.22;2.47;;;12.80;99.90;;;;;;5110534;28;20254;-78
2023/08/28 04:16:33;;;;;;;5.82;2.70;;;12.90;99.90;;;;;;5079971;28;20044;-77
2023/08/28 04:18:58;;;;;;;4.68;2.58;;;12.80;99.90;;;;;;5085151;28;20123;-78
2023/08/28 04:21:24;;;;;;;5.57;3.15;;;12.80;99.90;;;;;;5083758;28;20514;-79
2023/08/28 04:23:50;;;;;;;5.47;2.65;;;12.70;99.90;;;;;;5082635;28;20479;-78
2023/08/28 04:26:15;;;;;;;5.50;2.63;;;12.70;99.90;;;;;;5081078;28;20119;-78
2023/08/28 04:28:41;;;;;;;4.95;2.65;;;12.70;99.90;;;;;;5077369;28;20045;-78
2023/08/28 04:31:12;;;;;;;5.18;2.55;;;12.70;99.90;;;;;;5082487;28;20075;-78
2023/08/28 04:33:38;;;;;;;3.30;2.38;;;12.80;99.90;;;;;;5083167;28;20140;-78
2023/08/28 04:36:04;;;;;;;4.72;2.92;;;12.70;99.90;;;;;;5080790;28;20040;-78
2023/08/28 04:38:29;;;;;;;4.25;2.63;;;12.70;99.90;;;;;;5078614;28;20072;-79
2023/08/28 04:40:55;;;;;;;4.05;2.60;;;12.70;99.90;;;;;;5082180;28;20479;-78
2023/08/28 04:43:23;;;;;;;3.63;2.47;;;12.70;99.90;;;;;;5099075;28;20033;-78
2023/08/28 04:45:49;;;;;;;8.60;3.53;;;12.60;99.90;;;;;;5090946;28;20068;-78
2023/08/28 04:48:15;;;;;;;8.48;2.90;;;12.70;99.90;;;;;;5082128;28;20068;-78
2023/08/28 04:50:41;;;;;;;5.97;2.78;;;12.80;99.90;;;;;;5087689;28;20056;-78
2023/08/28 04:53:07;;;;;;;10.80;3.15;;;12.60;99.90;;;;;;5093079;28;20379;-78
2023/08/28 04:55:33;;;;;;;5.10;2.80;;;12.70;99.90;;;;;;5088684;28;20067;-78
2023/08/28 04:57:59;;;;;;;5.38;3.17;;;12.70;99.90;;;;;;5084397;28;20064;-78
2023/08/28 05:00:24;;;;;;;4.28;2.78;;;12.70;99.90;;;;;;5079736;28;20032;-78
2023/08/28 05:02:50;;;;;;;4.53;2.80;;;12.70;99.90;;;;;;5087358;28;20040;-78
2023/08/28 05:05:15;;;;;;;7.38;2.70;;;12.70;99.90;;;;;;5083759;28;20029;-78
2023/08/28 05:07:41;;;;;;;6.13;2.92;;;12.70;99.90;;;;;;5083339;28;20512;-78
2023/08/28 05:10:07;;;;;;;7.72;2.95;;;12.70;99.90;;;;;;5083744;28;20090;-79
2023/08/28 05:12:33;;;;;;;5.65;2.90;;;12.70;99.90;;;;;;5089495;28;20963;-78
2023/08/28 05:14:58;;;;;;;7.03;3.22;;;12.70;99.90;;;;;;5094527;28;20130;-78
2023/08/28 05:17:24;;;;;;;7.95;2.95;;;12.70;99.90;;;;;;5092637;28;20043;-77
2023/08/28 05:19:50;;;;;;;3.95;2.88;;;12.70;99.90;;;;;;5087645;28;20394;-78
2023/08/28 05:22:16;;;;;;;5.68;3.10;;;12.80;99.90;;;;;;5092038;28;20048;-78
2023/08/28 05:24:41;;;;;;;8.52;3.50;;;12.80;99.90;;;;;;5086301;28;20056;-78
2023/08/28 05:27:08;;;;;;;5.75;3.20;;;12.80;99.90;;;;;;5085504;28;20120;-77
2023/08/28 05:29:34;;;;;;;5.95;3.00;;;12.90;99.90;;;;;;5081955;28;20060;-78
2023/08/28 05:31:59;;;;;;;6.65;2.75;;;13.10;99.90;;;;;;5089889;28;20417;-78
2023/08/28 05:34:25;;;;;;;4.55;2.90;;;12.90;99.90;;;;;;5087150;28;20490;-78
2023/08/28 05:36:51;;;;;;;4.78;2.90;;;12.90;99.90;;;;;;5088623;28;20048;-78
2023/08/28 05:39:16;;;;;;;4.90;2.80;;;13.00;99.90;;;;;;5069669;28;20402;-78
2023/08/28 05:41:42;;;;;;;6.57;3.13;;;13.00;99.90;;;;;;5082668;28;20036;-78
2023/08/28 05:44:08;;;;;;;6.28;2.85;;;13.10;99.90;;;;;;5085723;28;20036;-78
2023/08/28 05:46:33;;;;;;;5.68;3.00;;;13.10;99.90;;;;;;5082719;28;20044;-78
2023/08/28 05:48:59;;;;;;;3.75;2.70;;;13.10;99.90;;;;;;5086241;28;20040;-77
2023/08/28 05:51:25;;;;;;;5.53;3.10;;;13.00;99.90;;;;;;5079680;28;20463;-77
2023/08/28 05:53:50;;;;;;;5.25;3.00;;;13.20;99.90;;;;;;5065793;28;20391;-78
2023/08/28 05:56:16;;;;;;;7.03;3.38;;;13.20;99.90;;;;;;5082984;28;20033;-78
2023/08/28 05:58:42;;;;;;;5.72;3.17;;;13.30;99.90;;;;;;5111027;27;20558;-77
2023/08/28 06:01:08;;;;;;;5.60;3.20;;;13.30;99.90;;;;;;5081498;28;20566;-77
2023/08/28 06:03:34;;;;;;;6.20;3.03;;;13.30;99.90;;;;;;5081894;28;20051;-78
2023/08/28 06:06:00;;;;;;;7.35;3.30;;;13.40;99.90;;;;;;5083459;28;20028;-78
2023/08/28 06:08:25;;;;;;;5.32;3.25;;;13.50;99.90;;;;;;5077327;28;20545;-78
2023/08/28 06:10:51;;;;;;;11.57;3.25;;;13.60;99.90;;;;;;5081409;28;20445;-77
2023/08/28 06:13:17;;;;;;;5.32;3.13;;;13.60;99.90;;;;;;5065443;28;20420;-77
2023/08/28 06:15:42;;;;;;;4.43;3.30;;;13.80;99.90;;;;;;5077935;28;20033;-77
2023/08/28 06:18:08;;;;;;;6.03;3.40;;;14.10;99.90;;;;;;5064553;28;20052;-78
2023/08/28 06:20:35;;;;;;;6.10;2.67;;;14.50;99.90;;;;;;5077467;28;20044;-76
2023/08/28 06:23:01;;;;;;;4.85;2.83;;;14.90;99.90;;;;;;5079939;28;20453;-78
2023/08/28 06:25:27;;;;;;;4.63;2.40;;;15.20;99.90;;;;;;5080428;28;20066;-78
2023/08/28 06:27:53;;;;;;;6.25;2.60;;;15.50;99.90;;;;;;5110067;27;20147;-76
2023/08/28 06:30:19;;;;;;;5.90;2.50;;;15.60;99.90;;;;;;5077792;28;20455;-78
2023/08/28 06:32:45;;;;;;;4.30;2.08;;;15.70;99.90;;;;;;5086526;28;20047;-78
2023/08/28 06:35:11;;;;;;;7.75;2.53;;;15.90;99.90;;;;;;5076416;28;20040;-77
2023/08/28 06:37:38;;;;;;;8.07;2.00;;;16.10;99.90;;;;;;5080762;28;20067;-78
2023/08/28 06:40:04;;;;;;;4.95;1.80;;;16.20;99.90;;;;;;5074835;28;20398;-77
2023/08/28 06:42:30;;;;;;;2.88;1.60;;;16.20;99.90;;;;;;5091335;28;21608;-77
2023/08/28 06:44:55;;;;;;;5.22;2.00;;;16.20;99.90;;;;;;5080627;28;20401;-77
2023/08/28 06:47:21;;;;;;;4.63;2.13;;;16.30;99.90;;;;;;5074316;28;20032;-78
2023/08/28 06:49:47;;;;;;;5.30;1.70;;;16.50;99.90;;;;;;5077135;28;20075;-78
2023/08/28 06:52:12;;;;;;;5.55;1.83;;;16.80;99.90;;;;;;5081743;28;20518;-78
2023/08/28 06:54:38;;;;;;;3.50;1.52;;;17.00;99.90;;;;;;5089152;28;20037;-78
2023/08/28 06:57:04;;;;;;;10.25;1.90;;;17.30;99.90;;;;;;5078527;28;20044;-78
2023/08/28 06:59:29;;;;;;;9.15;1.60;;;17.40;99.90;;;;;;5084104;28;20049;-79
2023/08/28 07:01:55;;;;;;;8.10;1.67;;;17.50;99.90;;;;;;5068095;28;20119;-79
2023/08/28 07:04:22;;;;;;;6.38;1.60;;;17.40;99.90;;;;;;5079913;28;20082;-78
2023/08/28 07:06:47;;;;;;;8.00;1.73;;;17.40;99.90;;;;;;5087755;28;20078;-79
2023/08/28 07:09:13;;;;;;;6.05;1.55;;;17.40;99.90;;;;;;5092501;28;20131;-78
2023/08/28 07:11:39;;;;;;;3.78;1.80;;;17.40;99.90;;;;;;5084463;28;20068;-78
2023/08/28 07:14:06;;;;;;;5.70;1.48;;;17.50;99.90;;;;;;5069624;28;20040;-78
2023/08/28 07:16:33;;;;;;;6.78;1.60;;;17.60;99.90;;;;;;5080911;28;20040;-78
2023/08/28 07:18:59;;;;;;;5.93;1.73;;;17.60;99.90;;;;;;5088434;28;20044;-78
2023/08/28 07:21:25;;;;;;;3.10;1.45;;;17.70;99.90;;;;;;5080451;28;20324;-79
2023/08/28 07:23:51;;;;;;;11.88;2.00;;;17.70;99.90;;;;;;5079918;28;20116;-79
2023/08/28 07:26:17;;;;;;;2.70;1.70;;;17.70;99.90;;;;;;5081531;28;20050;-79
2023/08/28 07:28:43;;;;;;;4.13;1.73;;;17.80;99.90;;;;;;5084503;28;20047;-78
2023/08/28 07:31:10;;;;;;;5.55;1.33;;;17.80;99.90;;;;;;5081652;28;20402;-79
2023/08/28 07:33:36;;;;;;;5.03;1.17;;;18.00;99.90;;;;;;5077845;28;20086;-78
2023/08/28 07:36:03;;;;;;;3.25;1.50;;;18.00;99.90;;;;;;5082895;28;20162;-81
2023/08/28 07:38:28;;;;;;;4.60;1.30;;;18.10;99.90;;;;;;5082072;28;20055;-79
2023/08/28 07:40:54;;;;;;;5.45;1.30;;;18.20;99.90;;;;;;5082252;28;20040;-79
2023/08/28 07:43:20;;;;;;;5.05;1.65;;;18.20;99.90;;;;;;5077930;28;20076;-79
2023/08/28 07:45:45;;;;;;;4.53;1.50;;;18.30;99.90;;;;;;5081255;28;20045;-79
2023/08/28 07:48:11;;;;;;;4.80;1.67;;;18.40;99.90;;;;;;5078161;28;20394;-79
2023/08/28 07:50:39;;;;;;;3.65;1.35;;;18.50;99.90;;;;;;5082799;28;20117;-79
2023/08/28 07:53:04;;;;;;;3.25;1.40;;;18.60;99.90;;;;;;5078341;28;22031;-79
2023/08/28 07:55:30;;;;;;;8.88;1.58;;;18.70;99.90;;;;;;5076282;28;20131;-80
2023/08/28 07:57:56;;;;;;;6.05;1.50;;;18.80;99.90;;;;;;5081687;28;20062;-80
2023/08/28 08:00:22;;;;;;;5.35;1.83;;;18.70;99.90;;;;;;5060748;28;20078;-80
2023/08/28 08:02:52;;;;;;;10.13;2.08;;;18.50;99.90;;;;;;5079066;28;20049;-78
2023/08/28 08:05:18;;;;;;;6.55;1.67;;;18.40;99.90;;;;;;5073661;28;20044;-78
2023/08/28 08:07:44;;;;;;;10.32;1.67;;;18.30;99.90;;;;;;5078500;28;20044;-79
2023/08/28 08:10:12;;;;;;;4.78;1.60;;;18.20;99.90;;;;;;5076050;28;20048;-78
2023/08/28 08:12:38;;;;;;;4.28;1.70;;;18.10;99.90;;;;;;5078734;28;20040;-78
2023/08/28 08:15:06;;;;;;;6.55;1.80;;;18.00;99.90;;;;;;5082491;28;20086;-77
2023/08/28 08:17:33;;;;;;;5.97;1.92;;;18.00;99.90;;;;;;5084619;28;20123;-78
2023/08/28 08:19:58;;;;;;;3.35;1.80;;;18.10;99.90;;;;;;5086894;28;20056;-78
2023/08/28 08:22:24;;;;;;;4.53;1.88;;;18.40;99.90;;;;;;5082968;28;20098;-78
2023/08/28 08:24:50;;;;;;;4.90;1.95;;;18.70;99.90;;;;;;5083217;28;20339;-78
2023/08/28 08:27:16;;;;;;;3.92;1.70;;;18.90;99.90;;;;;;5083043;28;20036;-78
2023/08/28 08:29:43;;;;;;;7.95;2.08;;;19.10;99.90;;;;;;5085272;28;20059;-78
2023/08/28 08:32:08;;;;;;;3.00;1.50;;;19.10;99.90;;;;;;5087946;28;20052;-79
2023/08/28 08:34:34;;;;;;;5.85;1.63;;;19.10;99.90;;;;;;5084797;28;20036;-79
2023/08/28 08:36:59;;;;;;;2.78;1.20;;;19.10;99.90;;;;;;5085164;28;20044;-76
2023/08/28 08:39:25;;;;;;;3.88;1.52;;;19.10;99.90;;;;;;5085177;28;20039;-77
2023/08/28 08:41:51;;;;;;;2.75;1.17;;;18.90;99.90;;;;;;5086529;28;20051;-78
2023/08/28 08:44:17;;;;;;;9.57;1.50;;;18.70;99.90;;;;;;5100663;28;20043;-79
2023/08/28 08:46:46;;;;;;;3.20;1.27;;;18.60;99.90;;;;;;5103440;28;20104;-79
2023/08/28 08:49:15;;;;;;;4.10;1.83;;;18.30;99.90;;;;;;5091643;28;20036;-79
2023/08/28 08:51:47;;;;;;;3.22;1.33;;;18.30;99.90;;;;;;5092571;28;20040;-79
2023/08/28 08:54:20;;;;;;;5.57;1.30;;;18.30;99.90;;;;;;5106093;28;20041;-78
2023/08/28 08:56:50;;;;;;;3.50;1.20;;;18.50;99.90;;;;;;5109139;28;20462;-79
2023/08/28 08:59:17;;;;;;;4.15;1.27;;;18.70;99.90;;;;;;5105912;28;20410;-78
2023/08/28 09:01:43;;;;;;;6.93;1.30;;;19.00;99.90;;;;;;5107877;28;20092;-78
2023/08/28 09:04:09;;;;;;;4.00;1.20;;;19.20;99.90;;;;;;5102025;28;20402;-79
2023/08/28 09:06:37;;;;;;;6.20;1.40;;;19.40;99.90;;;;;;5108330;28;20036;-80
2023/08/28 09:09:05;;;;;;;;;;;19.60;99.90;;;;;;5101931;28;20044;-77
2023/08/28 09:11:32;;;;;;;1.83;1.02;;;19.70;99.90;;;;;;5098478;28;19924;-80
2023/08/28 09:13:57;;;;;;;4.28;0.88;;;19.90;99.90;;;;;;5108569;28;20054;-78
2023/08/28 09:16:23;;;;;;;2.95;1.20;;;20.10;99.90;;;;;;5098440;28;20075;-79
2023/08/28 09:18:50;;;;;;;4.05;1.13;;;20.30;99.90;;;;;;5091374;28;20032;-79
2023/08/28 09:21:15;;;;;;;13.15;2.15;;;20.20;99.90;;;;;;5106630;28;20096;-79
2023/08/28 09:23:46;;;;;;;4.40;1.10;;;20.20;99.90;;;;;;5104415;28;20033;-79
2023/08/28 09:26:17;;;;;;;1.90;1.10;;;20.00;99.90;;;;;;5101702;28;20033;-79
2023/08/28 09:28:58;;;;;;;2.45;1.05;;;19.80;99.90;;;;;;5109545;28;20097;-79
2023/08/28 09:31:30;;;;;;;4.68;1.10;;;19.60;99.90;;;;;;5094781;28;20048;-78
2023/08/28 09:33:56;;;;;;;4.90;0.98;;;19.40;99.90;;;;;;5101832;28;20502;-77
2023/08/28 09:36:22;;;;;;;4.38;1.30;;;19.30;99.90;;;;;;5101822;28;20035;-78
2023/08/28 09:38:47;;;;;;;2.42;1.10;;;19.20;99.90;;;;;;5104911;28;20052;-78
2023/08/28 09:41:13;;;;;;;3.10;1.27;;;19.00;99.90;;;;;;5108183;28;20032;-77
2023/08/28 09:43:39;;;;;;;3.88;1.50;;;19.00;99.90;;;;;;5095446;28;20490;-79
2023/08/28 09:46:06;;;;;;;4.63;1.27;;;18.90;99.90;;;;;;5102578;28;20039;-79
2023/08/28 09:48:33;;;;;;;3.33;1.23;;;18.90;99.90;;;;;;5098486;28;20482;-77
2023/08/28 09:51:06;;;;;;;5.15;1.27;;;18.80;99.90;;;;;;5095356;28;20044;-78
2023/08/28 09:53:33;;;;;;;2.90;1.50;;;18.60;99.90;;;;;;5093998;28;20101;-77
2023/08/28 09:55:59;;;;;;;2.58;1.00;;;18.40;99.90;;;;;;5082735;28;20508;-76
2023/08/28 09:58:26;;;;;;;3.00;1.40;;;18.30;99.90;;;;;;5096856;28;20032;-78
2023/08/28 10:00:54;;;;;;;3.97;1.25;;;18.20;99.90;;;;;;5092649;28;20032;-78
2023/08/28 10:03:22;;;;;;;4.68;2.00;;;18.10;99.90;;;;;;5098622;28;20075;-78
2023/08/28 10:05:51;;;;;;;2.30;1.27;;;18.00;99.90;;;;;;5101011;28;20044;-77
2023/08/28 10:08:17;;;;;;;2.15;1.00;;;18.00;99.90;;;;;;5087814;28;20119;-78
2023/08/28 10:10:47;;;;;;;2.35;1.23;;;17.90;99.90;;;;;;5090460;28;20489;-77
2023/08/28 10:13:21;;;;;;;3.78;1.35;;;17.80;99.90;;;;;;5089975;28;20393;-78
2023/08/28 10:16:06;;;;;;;2.92;1.23;;;17.80;99.90;;;;;;5091942;28;20051;-78
2023/08/28 10:18:37;;;;;;;1.80;1.10;;;17.70;99.90;;;;;;5094700;28;20505;-78
2023/08/28 10:21:04;;;;;;;3.08;1.20;;;17.70;99.90;;;;;;5050535;28;1079282;-78
2023/08/28 10:23:31;;;;;;;4.38;1.15;;;17.80;99.90;;;;;;5090594;28;20104;-77
2023/08/28 10:25:58;;;;;;;2.78;1.10;;;17.80;99.90;;;;;;5083153;28;20050;-77
2023/08/28 10:28:26;;;;;;;3.67;1.25;;;17.80;99.90;;;;;;5088545;28;20052;-78
2023/08/28 10:30:52;;;;;;;5.22;1.35;;;17.90;99.90;;;;;;5086523;28;20040;-77
2023/08/28 10:33:22;;;;;;;5.10;1.75;;;17.90;99.90;;;;;;5091951;28;20028;-77
2023/08/28 10:35:51;;;;;;;5.72;1.33;;;18.00;99.90;;;;;;5092313;28;20064;-77
2023/08/28 10:38:21;;;;;;;4.70;1.20;;;18.00;99.90;;;;;;5089914;28;20072;-78
2023/08/28 10:40:52;;;;;;;2.47;1.10;;;18.10;99.90;;;;;;5095217;28;20075;-78
2023/08/28 10:43:19;;;;;;;3.53;1.15;;;18.20;99.90;;;;;;5089358;28;20055;-78
2023/08/28 10:45:45;;;;;;;;;;;18.30;99.90;;;;;;5082355;28;20119;-78
2023/08/28 10:48:11;;;;;;;4.20;1.58;;;18.40;99.90;;;;;;5088595;28;20007;-78
2023/08/28 10:50:37;;;;;;;3.67;1.42;;;18.50;99.90;;;;;;5093765;28;20069;-78
2023/08/28 10:53:04;;;;;;;4.80;1.40;;;18.60;99.90;;;;;;5082458;28;20044;-77
2023/08/28 10:55:30;;;;;;;7.35;1.85;;;18.60;99.90;;;;;;5087083;28;20028;-78
2023/08/28 10:58:03;;;;;;;3.42;1.40;;;18.70;99.90;;;;;;5089069;28;20039;-79
2023/08/28 11:00:29;;;;;;;3.20;1.10;;;18.90;99.90;;;;;;5092180;28;20040;-81
2023/08/28 11:03:15;;;;;;;3.40;1.27;;;19.10;99.90;;;;;;5100980;28;20032;-80
2023/08/28 11:05:41;;;;;;;4.43;1.30;;;19.70;99.90;;;;;;5088187;28;20040;-79
2023/08/28 11:08:09;;;;;;;6.85;1.38;;;20.40;99.90;;;;;;5092689;28;20044;-79
2023/08/28 11:10:38;;;;;;;5.43;1.63;;;21.00;99.90;;;;;;5092974;28;20044;-80
2023/08/28 11:13:06;;;;;;;5.38;1.38;;;21.60;99.90;;;;;;5095946;28;20119;-80
2023/08/28 11:15:38;;;;;;;5.20;1.45;;;22.10;99.90;;;;;;5097426;28;20036;-80
2023/08/28 11:18:24;;;;;;;2.25;1.27;;;22.60;99.90;;;;;;5102211;28;20044;-80
2023/08/28 11:20:58;;;;;;;3.30;1.20;;;23.10;99.90;;;;;;5088664;28;20080;-80
2023/08/28 11:23:34;;;;;;;6.20;2.05;;;23.50;99.90;;;;;;5089204;28;20072;-81
2023/08/28 11:26:06;;;;;;;3.67;1.30;;;23.60;99.90;;;;;;5089577;28;20044;-80
2023/08/28 11:28:43;;;;;;;8.35;1.92;;;23.70;99.90;;;;;;5085467;28;20055;-79
2023/08/28 11:31:09;;;;;;;12.25;2.40;;;23.10;99.90;;;;;;5084897;28;20097;-77
2023/08/28 11:33:54;;;;;;;7.47;2.30;;;21.90;99.90;;;;;;5089322;28;20106;-77
2023/08/28 11:36:20;;;;;;;6.97;2.30;;;20.60;99.90;;;;;;5091324;28;20040;-76
2023/08/28 11:38:47;;;;;;;4.82;1.70;;;19.70;99.90;;;;;;5086591;28;20040;-75
2023/08/28 11:41:13;;;;;;;7.18;1.42;;;19.30;99.90;;;;;;5087358;28;20040;-76
2023/08/28 11:43:41;;;;;;;3.92;1.40;;;19.10;99.90;;;;;;5083659;28;20037;-77
2023/08/28 11:46:09;;;;;;;3.33;1.45;;;18.80;99.90;;;;;;5082655;28;20067;-78
2023/08/28 11:48:44;;;;;;;2.90;1.40;;;18.60;99.90;;;;;;5099729;28;20032;-80
2023/08/28 11:51:10;;;;;;;5.10;1.65;;;18.50;99.90;;;;;;5094524;28;20051;-79
2023/08/28 11:53:41;;;;;;;7.03;1.67;;;18.40;99.90;;;;;;5076868;28;20051;-79
2023/08/28 11:56:13;;;;;;;7.97;2.10;;;18.40;99.90;;;;;;5085220;28;20384;-76
2023/08/28 11:58:40;;;;;;;4.18;1.90;;;18.40;99.90;;;;;;5078817;28;20051;-76
2023/08/28 12:01:12;;;;;;;4.80;1.50;;;18.40;99.90;;;;;;5074195;28;20086;-78
2023/08/28 12:03:43;;;;;;;5.43;1.98;;;18.40;99.90;;;;;;5086910;28;20045;-78
2023/08/28 12:06:11;;;;;;;9.18;2.13;;;18.40;99.90;;;;;;5079394;28;20498;-78
2023/08/28 12:08:39;;;;;;;4.38;1.70;;;18.40;99.90;;;;;;5083411;28;20233;-78
2023/08/28 12:11:09;;;;;;;;;;;18.50;99.90;;;;;;5090386;28;20044;-77
2023/08/28 12:13:36;;;;;;;5.18;1.73;;;18.40;99.90;;;;;;5082291;28;20028;-79
2023/08/28 12:16:33;;;;;;;3.57;1.70;;;18.60;99.90;;;;;;5073078;28;20070;-79
2023/08/28 12:18:59;;;;;;;5.57;1.88;;;18.70;99.90;;;;;;5093192;28;20389;-79
2023/08/28 12:21:38;;;;;;;4.10;1.50;;;19.00;99.90;;;;;;5095660;28;20185;-80
2023/08/28 12:24:07;;;;;;;5.90;1.83;;;18.90;99.90;;;;;;5109982;28;20059;-80
2023/08/28 12:26:36;;;;;;;4.97;1.80;;;18.90;99.90;;;;;;5093246;28;20043;-80
2023/08/28 12:29:03;;;;;;;3.03;1.77;;;19.00;99.90;;;;;;5086034;28;20415;-81
2023/08/28 12:31:36;;;;;;;7.05;2.03;;;19.00;99.90;;;;;;5090418;28;20440;-80
2023/08/28 12:34:09;;;;;;;1.92;1.27;;;19.20;99.90;;;;;;5099646;28;20452;-81
2023/08/28 12:36:40;;;;;;;2.88;1.55;;;19.30;99.90;;;;;;5090932;28;20048;-79
2023/08/28 12:39:08;;;;;;;3.90;1.60;;;20.10;99.90;;;;;;5089221;28;20133;-78
2023/08/28 12:41:54;;;;;;;6.47;1.52;;;19.60;99.90;;;;;;5096537;28;20090;-79
2023/08/28 12:44:21;;;;;;;2.88;1.20;;;19.80;99.90;;;;;;5097402;28;20111;-77
2023/08/28 12:46:48;;;;;;;1.88;1.13;;;20.00;99.90;;;;;;5097604;28;20044;-79
2023/08/28 12:49:17;;;;;;;3.35;1.05;;;20.10;99.90;;;;;;5092965;28;20072;-79